createdAt,value
2017-10-16T00:00:00.892Z,20.50
2017-10-16T00:02:27.126Z,21.90
2017-10-16T00:04:53.373Z,19.33
2017-10-16T00:07:19.612Z,20.20
2017-10-16T00:09:45.815Z,20.73
2017-10-16T00:12:12.050Z,19.43
2017-10-16T00:14:38.274Z,18.47
2017-10-16T00:17:04.541Z,19.07
2017-10-16T00:19:30.776Z,17.03
2017-10-16T00:21:57.004Z,18.17
2017-10-16T00:24:23.238Z,17.03
2017-10-16T00:26:49.433Z,17.70
2017-10-16T00:29:15.657Z,17.50
2017-10-16T00:31:41.908Z,20.70
2017-10-16T00:34:08.126Z,19.50
2017-10-16T00:36:34.361Z,21.00
2017-10-16T00:39:00.584Z,19.70
2017-10-16T00:41:26.869Z,18.80
2017-10-16T00:43:53.077Z,18.90
2017-10-16T00:46:19.282Z,20.37
2017-10-16T00:48:45.624Z,20.53
2017-10-16T00:51:11.860Z,19.17
2017-10-16T00:53:38.133Z,18.77
2017-10-16T00:56:04.365Z,18.93
2017-10-16T00:58:30.585Z,17.73
2017-10-16T01:00:56.826Z,17.27
2017-10-16T01:03:23.046Z,14.70
2017-10-16T01:05:49.291Z,16.87
2017-10-16T01:08:15.527Z,16.70
2017-10-16T01:10:41.765Z,15.67
2017-10-16T01:13:08.013Z,16.20
2017-10-16T01:15:34.249Z,20.27
2017-10-16T01:18:00.510Z,19.57
2017-10-16T01:20:26.719Z,19.07
2017-10-16T01:22:52.936Z,16.80
2017-10-16T01:25:19.137Z,18.63
2017-10-16T01:27:45.367Z,18.30
2017-10-16T01:30:11.611Z,18.50
2017-10-16T01:32:37.848Z,17.73
2017-10-16T01:35:04.075Z,17.40
2017-10-16T01:37:30.479Z,20.47
2017-10-16T01:39:56.693Z,16.70
2017-10-16T01:42:22.960Z,17.50
2017-10-16T01:44:49.167Z,18.10
2017-10-16T01:47:15.398Z,17.60
2017-10-16T01:49:41.753Z,16.30
2017-10-16T01:52:07.983Z,16.63
2017-10-16T01:54:34.241Z,16.03
2017-10-16T01:57:00.456Z,16.07
2017-10-16T01:59:26.691Z,16.53
2017-10-16T02:01:52.899Z,15.60
2017-10-16T02:04:19.135Z,17.80
2017-10-16T02:06:45.382Z,16.30
2017-10-16T02:09:11.600Z,14.53
2017-10-16T02:11:37.823Z,18.63
2017-10-16T02:14:04.046Z,18.63
2017-10-16T02:16:30.271Z,17.00
2017-10-16T02:18:56.498Z,17.70
2017-10-16T02:21:22.705Z,21.50
2017-10-16T02:23:48.920Z,19.43
2017-10-16T02:26:15.160Z,18.73
2017-10-16T02:28:41.396Z,23.80
2017-10-16T02:31:07.658Z,19.40
2017-10-16T02:33:33.897Z,19.83
2017-10-16T02:36:00.166Z,22.20
2017-10-16T02:38:26.400Z,21.27
2017-10-16T02:40:52.635Z,18.60
2017-10-16T02:43:18.904Z,20.07
2017-10-16T02:45:45.147Z,19.13
2017-10-16T02:48:11.373Z,20.60
2017-10-16T02:50:37.618Z,19.93
2017-10-16T02:53:03.834Z,17.90
2017-10-16T02:55:30.061Z,18.77
2017-10-16T02:57:56.311Z,20.80
2017-10-16T03:00:22.539Z,18.90
2017-10-16T03:02:48.797Z,16.90
2017-10-16T03:05:15.037Z,17.40
2017-10-16T03:07:41.320Z,16.53
2017-10-16T03:10:07.553Z,16.83
2017-10-16T03:12:33.788Z,15.67
2017-10-16T03:15:00.013Z,17.60
2017-10-16T03:17:26.243Z,16.23
2017-10-16T03:19:52.486Z,15.57
2017-10-16T03:22:18.722Z,15.67
2017-10-16T03:24:44.952Z,20.40
2017-10-16T03:27:11.192Z,16.60
2017-10-16T03:29:37.430Z,14.27
2017-10-16T03:32:03.696Z,15.73
2017-10-16T03:34:29.925Z,15.13
2017-10-16T03:36:56.167Z,17.33
2017-10-16T03:39:22.408Z,19.97
2017-10-16T03:41:48.628Z,19.40
2017-10-16T03:44:14.869Z,18.00
2017-10-16T03:46:41.194Z,17.00
2017-10-16T03:49:07.422Z,16.20
2017-10-16T03:51:33.649Z,15.30
2017-10-16T03:53:59.870Z,18.90
2017-10-16T03:56:26.130Z,24.73
2017-10-16T03:58:52.368Z,17.23
2017-10-16T04:01:18.588Z,18.47
2017-10-16T04:03:44.828Z,19.03
2017-10-16T04:06:11.062Z,16.67
2017-10-16T04:08:37.341Z,18.23
2017-10-16T04:11:03.594Z,19.17
2017-10-16T04:13:29.873Z,21.00
2017-10-16T04:15:56.163Z,17.37
2017-10-16T04:18:22.397Z,18.23
2017-10-16T04:20:48.686Z,16.77
2017-10-16T04:23:14.939Z,17.40
2017-10-16T04:25:41.169Z,15.43
2017-10-16T04:28:07.413Z,14.20
2017-10-16T04:30:33.642Z,16.00
2017-10-16T04:32:59.867Z,15.93
2017-10-16T04:35:26.120Z,14.97
2017-10-16T04:37:52.361Z,16.13
2017-10-16T04:40:18.586Z,17.50
2017-10-16T04:42:44.824Z,15.73
2017-10-16T04:45:11.086Z,16.83
2017-10-16T04:47:37.319Z,18.10
2017-10-16T04:50:03.542Z,16.67
2017-10-16T04:52:29.785Z,15.40
2017-10-16T04:54:56.014Z,17.17
2017-10-16T04:57:22.278Z,16.57
2017-10-16T04:59:48.521Z,15.63
2017-10-16T05:02:14.768Z,14.33
2017-10-16T05:04:41.012Z,16.10
2017-10-16T05:07:07.259Z,15.20
2017-10-16T05:09:33.604Z,18.07
2017-10-16T05:11:59.851Z,15.53
2017-10-16T05:14:26.082Z,18.60
2017-10-16T05:16:52.322Z,17.07
2017-10-16T05:19:18.576Z,16.40
2017-10-16T05:21:44.806Z,19.40
2017-10-16T05:24:11.052Z,18.67
2017-10-16T05:26:37.277Z,15.93
2017-10-16T05:29:03.538Z,13.50
2017-10-16T05:31:29.802Z,12.87
2017-10-16T05:33:56.042Z,11.97
2017-10-16T05:36:22.283Z,13.07
2017-10-16T05:38:48.508Z,13.93
2017-10-16T05:41:14.739Z,14.10
2017-10-16T05:43:40.986Z,15.07
2017-10-16T05:46:07.257Z,13.30
2017-10-16T05:48:33.482Z,14.00
2017-10-16T05:50:59.707Z,15.30
2017-10-16T05:53:25.970Z,14.10
2017-10-16T05:55:52.212Z,15.17
2017-10-16T05:58:18.426Z,13.10
2017-10-16T06:00:44.651Z,13.77
2017-10-16T06:03:10.874Z,13.03
2017-10-16T06:05:37.104Z,11.53
2017-10-16T06:08:03.335Z,13.70
2017-10-16T06:10:29.563Z,15.30
2017-10-16T06:12:55.790Z,13.30
2017-10-16T06:15:22.021Z,13.80
2017-10-16T06:17:48.287Z,12.90
2017-10-16T06:20:14.531Z,12.50
2017-10-16T06:22:40.772Z,11.37
2017-10-16T06:25:07.019Z,11.07
2017-10-16T06:27:33.259Z,10.93
2017-10-16T06:29:59.510Z,10.50
2017-10-16T06:32:25.780Z,11.63
2017-10-16T06:34:52.015Z,10.33
2017-10-16T06:37:18.419Z,11.70
2017-10-16T06:39:44.638Z,11.30
2017-10-16T06:42:10.879Z,11.23
2017-10-16T06:44:37.122Z,14.33
2017-10-16T06:47:03.371Z,14.60
2017-10-16T06:49:29.613Z,13.63
2017-10-16T06:51:55.831Z,11.00
2017-10-16T06:54:22.099Z,10.70
2017-10-16T06:56:48.486Z,12.50
2017-10-16T06:59:14.762Z,13.30
2017-10-16T07:01:40.976Z,16.83
2017-10-16T07:04:07.197Z,15.67
2017-10-16T07:06:33.474Z,18.57
2017-10-16T07:08:59.767Z,22.30
2017-10-16T07:11:26.059Z,20.53
2017-10-16T07:13:52.344Z,27.60
2017-10-16T07:16:18.629Z,34.67
2017-10-16T07:18:44.941Z,38.00
2017-10-16T07:21:11.229Z,35.67
2017-10-16T07:23:37.526Z,35.70
2017-10-16T07:26:03.811Z,35.03
2017-10-16T07:28:30.069Z,25.03
2017-10-16T07:30:56.353Z,21.80
2017-10-16T07:33:22.633Z,15.20
2017-10-16T07:35:48.930Z,14.20
2017-10-16T07:38:15.217Z,10.50
2017-10-16T07:40:41.500Z,16.47
2017-10-16T07:43:07.810Z,15.17
2017-10-16T07:45:34.092Z,16.10
2017-10-16T07:48:00.350Z,9.30
2017-10-16T07:50:26.744Z,9.33
2017-10-16T07:52:53.004Z,9.63
2017-10-16T07:55:19.405Z,9.27
2017-10-16T07:57:45.703Z,13.53
2017-10-16T08:00:11.985Z,14.03
2017-10-16T08:02:38.260Z,12.43
2017-10-16T08:05:04.525Z,11.53
2017-10-16T08:07:30.847Z,17.97
2017-10-16T08:09:57.118Z,19.70
2017-10-16T08:12:23.383Z,22.57
2017-10-16T08:14:49.643Z,16.60
2017-10-16T08:17:15.922Z,16.33
2017-10-16T08:19:42.287Z,20.40
2017-10-16T08:22:08.567Z,12.90
2017-10-16T08:24:34.846Z,15.60
2017-10-16T08:27:01.114Z,11.23
2017-10-16T08:29:27.396Z,13.30
2017-10-16T08:31:53.734Z,7.90
2017-10-16T08:34:20.009Z,8.00
2017-10-16T08:36:46.256Z,6.10
2017-10-16T08:39:12.564Z,8.57
2017-10-16T08:41:38.829Z,8.43
2017-10-16T08:44:05.224Z,12.23
2017-10-16T08:46:31.503Z,9.40
2017-10-16T08:48:57.778Z,11.90
2017-10-16T08:51:24.040Z,10.37
2017-10-16T08:53:50.313Z,8.60
2017-10-16T08:56:16.580Z,9.33
2017-10-16T08:58:42.876Z,10.37
2017-10-16T09:01:09.155Z,11.00
2017-10-16T09:03:35.472Z,11.13
2017-10-16T09:06:01.745Z,12.87
2017-10-16T09:08:28.012Z,18.80
2017-10-16T09:10:54.305Z,14.97
2017-10-16T09:13:20.587Z,13.37
2017-10-16T09:15:46.909Z,12.40
2017-10-16T09:18:13.232Z,9.30
2017-10-16T09:20:39.509Z,9.57
2017-10-16T09:23:05.781Z,11.50
2017-10-16T09:25:32.049Z,8.83
2017-10-16T09:27:58.351Z,8.40
2017-10-16T09:30:24.795Z,7.87
2017-10-16T09:32:51.072Z,5.33
2017-10-16T09:35:17.355Z,6.33
2017-10-16T09:37:43.625Z,5.87
2017-10-16T09:40:09.917Z,5.00
2017-10-16T09:42:36.189Z,4.67
2017-10-16T09:45:02.460Z,5.50
2017-10-16T09:47:28.809Z,6.40
2017-10-16T09:49:55.087Z,4.83
2017-10-16T09:52:21.391Z,6.03
2017-10-16T09:54:47.666Z,5.40
2017-10-16T09:57:13.931Z,3.60
2017-10-16T09:59:40.199Z,3.87
2017-10-16T10:02:06.457Z,4.07
2017-10-16T10:04:32.832Z,3.57
2017-10-16T10:06:59.095Z,3.70
2017-10-16T10:09:25.391Z,4.13
2017-10-16T10:11:51.652Z,4.20
2017-10-16T10:14:17.930Z,3.70
2017-10-16T10:16:44.246Z,4.73
2017-10-16T10:19:10.528Z,4.27
2017-10-16T10:21:36.793Z,4.50
2017-10-16T10:24:03.060Z,5.40
2017-10-16T10:26:29.326Z,4.57
2017-10-16T10:28:55.605Z,4.13
2017-10-16T10:31:21.945Z,4.93
2017-10-16T10:33:48.252Z,4.03
2017-10-16T10:36:14.513Z,4.27
2017-10-16T10:38:40.787Z,5.50
2017-10-16T10:41:07.098Z,4.50
2017-10-16T10:43:33.362Z,4.20
2017-10-16T10:45:59.615Z,4.23
2017-10-16T10:48:25.876Z,3.90
2017-10-16T10:50:52.135Z,3.73
2017-10-16T10:53:18.400Z,3.90
2017-10-16T10:55:44.667Z,4.10
2017-10-16T10:58:10.923Z,5.20
2017-10-16T11:00:37.197Z,4.87
2017-10-16T11:03:03.453Z,4.47
2017-10-16T11:05:29.765Z,4.50
2017-10-16T11:07:56.037Z,5.50
2017-10-16T11:10:22.316Z,5.67
2017-10-16T11:12:48.637Z,3.73
2017-10-16T11:15:14.892Z,4.60
2017-10-16T11:17:41.178Z,4.50
2017-10-16T11:20:07.448Z,3.90
2017-10-16T11:22:33.712Z,4.30
2017-10-16T11:25:00.009Z,4.93
2017-10-16T11:27:26.289Z,4.80
2017-10-16T11:29:52.589Z,4.50
2017-10-16T11:32:18.864Z,5.00
2017-10-16T11:34:45.119Z,5.87
2017-10-16T11:37:11.374Z,4.57
2017-10-16T11:39:37.637Z,5.77
2017-10-16T11:42:03.915Z,4.77
2017-10-16T11:44:30.195Z,5.17
2017-10-16T11:46:56.453Z,4.90
2017-10-16T11:49:22.781Z,4.90
2017-10-16T11:51:49.099Z,5.07
2017-10-16T11:54:15.560Z,4.43
2017-10-16T11:56:41.857Z,5.27
2017-10-16T11:59:08.123Z,4.03
2017-10-16T12:01:34.384Z,5.00
2017-10-16T12:04:00.666Z,4.33
2017-10-16T12:06:26.932Z,4.90
2017-10-16T12:08:53.220Z,4.60
2017-10-16T12:11:19.497Z,3.90
2017-10-16T12:13:45.794Z,3.50
2017-10-16T12:16:12.067Z,4.30
2017-10-16T12:18:38.355Z,4.30
2017-10-16T12:21:04.774Z,6.17
2017-10-16T12:23:31.037Z,6.65
2017-10-16T12:25:57.298Z,4.93
2017-10-16T12:28:23.604Z,4.53
2017-10-16T12:30:49.872Z,4.22
2017-10-16T12:33:16.131Z,3.80
2017-10-16T12:35:42.401Z,3.80
2017-10-16T12:38:08.696Z,4.03
2017-10-16T12:40:34.956Z,4.27
2017-10-16T12:43:01.216Z,4.17
2017-10-16T12:45:27.528Z,4.70
2017-10-16T12:47:53.798Z,5.27
2017-10-16T12:50:20.153Z,5.20
2017-10-16T12:52:46.422Z,3.93
2017-10-16T12:55:12.829Z,4.20
2017-10-16T12:57:39.094Z,5.20
2017-10-16T13:00:05.366Z,3.50
2017-10-16T13:02:31.612Z,5.00
2017-10-16T13:04:58.058Z,4.53
2017-10-16T13:07:26.183Z,5.07
2017-10-16T13:09:53.025Z,4.03
2017-10-16T13:12:19.628Z,3.57
2017-10-16T13:14:45.915Z,4.10
2017-10-16T13:17:12.217Z,4.50
2017-10-16T13:19:38.617Z,4.60
2017-10-16T13:22:04.929Z,4.43
2017-10-16T13:24:31.219Z,4.80
2017-10-16T13:26:57.486Z,4.50
2017-10-16T13:29:23.805Z,5.47
2017-10-16T13:31:50.073Z,5.10
2017-10-16T13:34:16.329Z,5.50
2017-10-16T13:36:42.641Z,6.03
2017-10-16T13:39:09.020Z,7.00
2017-10-16T13:41:35.422Z,6.60
2017-10-16T13:44:01.709Z,5.30
2017-10-16T13:46:28.098Z,5.70
2017-10-16T13:48:54.408Z,7.20
2017-10-16T13:51:20.717Z,6.03
2017-10-16T13:53:47.044Z,5.80
2017-10-16T13:56:13.344Z,6.17
2017-10-16T13:58:39.622Z,6.07
2017-10-16T14:01:05.923Z,6.83
2017-10-16T14:03:32.199Z,6.67
2017-10-16T14:05:58.585Z,6.10
2017-10-16T14:08:24.883Z,5.47
2017-10-16T14:10:51.225Z,6.20
2017-10-16T14:13:17.497Z,5.27
2017-10-16T14:15:43.792Z,5.87
2017-10-16T14:18:10.111Z,6.47
2017-10-16T14:20:36.406Z,6.13
2017-10-16T14:23:02.689Z,5.23
2017-10-16T14:25:28.966Z,6.23
2017-10-16T14:27:55.414Z,6.57
2017-10-16T14:30:21.759Z,7.30
2017-10-16T14:32:48.047Z,7.53
2017-10-16T14:35:14.339Z,7.03
2017-10-16T14:37:40.617Z,6.37
2017-10-16T14:40:06.902Z,7.80
2017-10-16T14:42:33.208Z,8.43
2017-10-16T14:44:59.511Z,10.40
2017-10-16T14:47:25.808Z,11.27
2017-10-16T14:49:52.084Z,11.80
2017-10-16T14:52:18.376Z,12.03
2017-10-16T14:54:44.657Z,12.77
2017-10-16T14:57:10.952Z,12.40
2017-10-16T14:59:37.285Z,10.50
2017-10-16T15:02:03.548Z,11.40
2017-10-16T15:04:29.805Z,10.20
2017-10-16T15:06:56.113Z,10.03
2017-10-16T15:09:22.403Z,10.93
2017-10-16T15:11:48.665Z,12.00
2017-10-16T15:14:14.942Z,11.20
2017-10-16T15:16:41.217Z,13.27
2017-10-16T15:19:07.503Z,11.53
2017-10-16T15:21:33.820Z,11.53
2017-10-16T15:24:00.088Z,9.70
2017-10-16T15:26:26.354Z,10.47
2017-10-16T15:28:52.630Z,12.23
2017-10-16T15:31:18.952Z,11.80
2017-10-16T15:33:45.217Z,12.70
2017-10-16T15:36:11.466Z,13.43
2017-10-16T15:38:37.747Z,12.73
2017-10-16T15:41:04.027Z,14.70
2017-10-16T15:43:30.346Z,16.53
2017-10-16T15:45:56.606Z,18.03
2017-10-16T15:48:22.926Z,15.60
2017-10-16T15:50:49.204Z,16.43
2017-10-16T15:53:15.459Z,14.93
2017-10-16T15:55:41.712Z,14.90
2017-10-16T15:58:08.019Z,14.90
2017-10-16T16:00:34.300Z,14.93
2017-10-16T16:03:00.588Z,15.60
2017-10-16T16:05:26.838Z,17.87
2017-10-16T16:07:53.102Z,17.93
2017-10-16T16:10:19.377Z,18.93
2017-10-16T16:12:45.691Z,16.67
2017-10-16T16:15:11.951Z,19.40
2017-10-16T16:17:38.226Z,16.27
2017-10-16T16:20:04.548Z,14.07
2017-10-16T16:22:30.832Z,12.47
2017-10-16T16:24:57.141Z,13.60
2017-10-16T16:27:23.412Z,18.07
2017-10-16T16:29:49.686Z,16.07
2017-10-16T16:32:16.118Z,17.10
2017-10-16T16:34:42.390Z,17.20
2017-10-16T16:37:08.726Z,15.37
2017-10-16T16:39:34.986Z,17.73
2017-10-16T16:42:01.269Z,18.03
2017-10-16T16:44:27.550Z,17.63
2017-10-16T16:46:53.834Z,15.40
2017-10-16T16:49:20.155Z,16.93
2017-10-16T16:51:46.415Z,16.63
2017-10-16T16:54:13.037Z,18.83
2017-10-16T16:56:39.489Z,20.97
2017-10-16T16:59:06.101Z,17.77
2017-10-16T17:01:32.607Z,17.80
2017-10-16T17:03:59.048Z,18.90
2017-10-16T17:06:25.564Z,19.00
2017-10-16T17:08:51.853Z,21.17
2017-10-16T17:11:18.449Z,17.97
2017-10-16T17:13:45.091Z,21.40
2017-10-16T17:16:11.478Z,17.93
2017-10-16T17:18:37.772Z,21.60
2017-10-16T17:21:04.032Z,17.93
2017-10-16T17:23:30.305Z,20.43
2017-10-16T17:25:56.572Z,21.90
2017-10-16T17:28:22.854Z,21.23
2017-10-16T17:30:49.125Z,20.60
2017-10-16T17:33:15.398Z,19.87
2017-10-16T17:35:41.665Z,23.87
2017-10-16T17:38:07.945Z,24.07
2017-10-16T17:40:34.287Z,18.40
2017-10-16T17:43:00.545Z,20.83
2017-10-16T17:45:26.804Z,22.87
2017-10-16T17:47:53.112Z,26.17
2017-10-16T17:50:19.389Z,23.67
2017-10-16T17:52:45.782Z,22.23
2017-10-16T17:55:12.043Z,20.10
2017-10-16T17:57:38.291Z,22.63
2017-10-16T18:00:04.597Z,23.20
2017-10-16T18:02:30.861Z,21.50
2017-10-16T18:04:57.141Z,20.90
2017-10-16T18:07:23.408Z,22.73
2017-10-16T18:09:49.659Z,22.20
2017-10-16T18:12:15.969Z,24.80
2017-10-16T18:14:42.229Z,23.57
2017-10-16T18:17:08.502Z,20.97
2017-10-16T18:19:34.773Z,21.00
2017-10-16T18:22:01.028Z,21.37
2017-10-16T18:24:27.381Z,18.53
2017-10-16T18:26:53.648Z,19.53
2017-10-16T18:29:19.911Z,19.57
2017-10-16T18:31:46.181Z,22.13
2017-10-16T18:34:12.443Z,21.30
2017-10-16T18:36:38.722Z,19.70
2017-10-16T18:39:05.184Z,20.17
2017-10-16T18:41:31.459Z,22.47
2017-10-16T18:43:57.721Z,21.87
2017-10-16T18:46:24.059Z,21.60
2017-10-16T18:48:50.364Z,23.60
2017-10-16T18:51:16.624Z,25.80
2017-10-16T18:53:42.898Z,23.60
2017-10-16T18:56:09.162Z,23.07
2017-10-16T18:58:35.427Z,23.63
2017-10-16T19:01:01.722Z,23.77
2017-10-16T19:03:27.989Z,25.07
2017-10-16T19:05:54.267Z,21.90
2017-10-16T19:08:20.605Z,21.03
2017-10-16T19:10:46.879Z,24.03
2017-10-16T19:13:13.147Z,23.40
2017-10-16T19:15:39.452Z,23.73
2017-10-16T19:18:05.724Z,26.47
2017-10-16T19:20:31.976Z,23.43
2017-10-16T19:22:58.251Z,23.27
2017-10-16T19:25:24.536Z,22.63
2017-10-16T19:27:50.839Z,24.50
2017-10-16T19:30:17.105Z,24.73
2017-10-16T19:32:43.423Z,22.40
2017-10-16T19:35:09.775Z,26.17
2017-10-16T19:37:36.025Z,23.67
2017-10-16T19:40:02.312Z,22.43
2017-10-16T19:42:28.587Z,21.67
2017-10-16T19:44:54.977Z,22.53
2017-10-16T19:47:21.234Z,23.93
2017-10-16T19:49:47.467Z,24.50
2017-10-16T19:52:13.720Z,23.53
2017-10-16T19:54:39.992Z,24.30
2017-10-16T19:57:06.253Z,21.13
2017-10-16T19:59:32.529Z,26.50
2017-10-16T20:01:58.797Z,27.50
2017-10-16T20:04:25.029Z,22.97
2017-10-16T20:06:51.382Z,22.30
2017-10-16T20:09:17.565Z,22.67
2017-10-16T20:11:43.839Z,22.13
2017-10-16T20:14:10.028Z,20.93
2017-10-16T20:16:36.205Z,23.80
2017-10-16T20:19:02.386Z,22.37
2017-10-16T20:21:28.579Z,21.30
2017-10-16T20:23:54.813Z,24.50
2017-10-16T20:26:21.001Z,22.53
2017-10-16T20:28:47.178Z,23.50
2017-10-16T20:31:13.366Z,26.90
2017-10-16T20:33:39.564Z,21.53
2017-10-16T20:36:05.783Z,23.20
2017-10-16T20:38:31.962Z,23.17
2017-10-16T20:40:58.164Z,21.27
2017-10-16T20:43:24.381Z,23.03
2017-10-16T20:45:50.573Z,22.67
2017-10-16T20:48:16.768Z,21.30
2017-10-16T20:50:42.936Z,19.03
2017-10-16T20:53:09.156Z,22.20
2017-10-16T20:55:35.358Z,20.20
2017-10-16T20:58:01.533Z,22.90
2017-10-16T21:00:27.739Z,21.63
2017-10-16T21:02:53.994Z,21.67
2017-10-16T21:05:20.203Z,19.23
2017-10-16T21:07:46.426Z,20.97
2017-10-16T21:10:12.632Z,22.90
2017-10-16T21:12:38.848Z,23.57
2017-10-16T21:15:05.045Z,22.30
2017-10-16T21:17:31.289Z,21.73
2017-10-16T21:19:57.467Z,21.90
2017-10-16T21:22:23.680Z,21.63
2017-10-16T21:24:49.906Z,22.60
2017-10-16T21:27:16.123Z,21.47
2017-10-16T21:29:42.372Z,20.60
2017-10-16T21:32:08.555Z,19.90
2017-10-16T21:34:34.760Z,19.00
2017-10-16T21:37:00.998Z,19.97
2017-10-16T21:39:27.238Z,21.37
2017-10-16T21:41:53.438Z,19.87
2017-10-16T21:44:19.670Z,22.70
2017-10-16T21:46:45.874Z,21.00
2017-10-16T21:49:12.105Z,22.20
2017-10-16T21:51:38.291Z,22.70
2017-10-16T21:54:04.518Z,19.90
2017-10-16T21:56:30.730Z,20.80
2017-10-16T21:58:56.934Z,20.57
2017-10-16T22:01:23.166Z,20.67
2017-10-16T22:03:49.385Z,21.60
2017-10-16T22:06:15.712Z,22.30
2017-10-16T22:08:41.915Z,23.47
2017-10-16T22:11:08.262Z,21.23
2017-10-16T22:13:34.469Z,21.40
2017-10-16T22:16:00.783Z,20.33
2017-10-16T22:18:27.017Z,19.90
2017-10-16T22:20:53.230Z,20.97
2017-10-16T22:23:19.439Z,20.17
2017-10-16T22:25:45.686Z,21.10
2017-10-16T22:28:11.943Z,19.17
2017-10-16T22:30:38.212Z,21.10
2017-10-16T22:33:04.479Z,21.23
2017-10-16T22:35:30.748Z,21.17
2017-10-16T22:37:57.046Z,22.50
2017-10-16T22:40:23.323Z,21.07
2017-10-16T22:42:49.585Z,20.80
2017-10-16T22:45:15.862Z,21.77
2017-10-16T22:47:42.127Z,17.70
2017-10-16T22:50:08.460Z,20.47
2017-10-16T22:52:34.715Z,20.20
2017-10-16T22:55:00.992Z,20.30
2017-10-16T22:57:27.267Z,20.47
2017-10-16T22:59:53.514Z,21.27
2017-10-16T23:02:19.822Z,21.80
2017-10-16T23:04:46.097Z,19.43
2017-10-16T23:07:12.358Z,21.10
2017-10-16T23:09:38.751Z,18.47
2017-10-16T23:12:05.004Z,18.83
2017-10-16T23:14:31.324Z,20.00
2017-10-16T23:16:57.573Z,19.40
2017-10-16T23:19:23.817Z,19.13
2017-10-16T23:21:50.073Z,21.47
2017-10-16T23:24:16.341Z,18.70
2017-10-16T23:26:42.624Z,19.13
2017-10-16T23:29:08.897Z,20.60
2017-10-16T23:31:35.149Z,19.50
2017-10-16T23:34:01.412Z,21.30
2017-10-16T23:36:27.669Z,20.77
2017-10-16T23:38:53.968Z,19.13
2017-10-16T23:41:20.237Z,19.77
2017-10-16T23:43:46.496Z,19.83
2017-10-16T23:46:12.782Z,21.03
2017-10-16T23:48:39.076Z,20.37
2017-10-16T23:51:05.359Z,22.93
2017-10-16T23:53:31.646Z,21.83
2017-10-16T23:55:57.950Z,20.70
2017-10-16T23:58:24.211Z,25.57
